Time;durP1;ratioP1;P1;durP2;ratioP2;P2;SDS_P1;SDS_P2;PMS_P1;PMS_P2;Temp;Humidity;BMP_temperature;BMP_pressure;BME280_temperature;BME280_humidity;BME280_pressure;Samples;Min_cycle;Max_cycle;Signal;HPM_P1;HPM_P2
2022/12/19 00:00:26;;;;;;;31.15;19.63;;;;;;;-13.72;75.42;98943.47;5110077;28;20047;-73
2022/12/19 00:02:54;;;;;;;26.30;18.48;;;;;;;-9.80;75.48;99606.09;5109111;28;20044;-72
2022/12/19 00:05:21;;;;;;;26.00;17.58;;;;;;;-2.40;75.97;100873.25;5109937;28;20071;-72
2022/12/19 00:07:48;;;;;;;26.67;18.13;;;;;;;-2.42;76.30;100885.31;5109775;28;20300;-72
2022/12/19 00:10:15;;;;;;;30.50;19.27;;;;;;;-2.43;76.32;100884.44;5107588;28;20048;-72
2022/12/19 00:12:42;;;;;;;26.48;18.38;;;;;;;-4.40;76.35;100548.97;5108749;28;20040;-72
2022/12/19 00:15:09;;;;;;;27.45;16.50;;;;;;;-2.42;75.88;100922.53;5108462;28;20047;-72
2022/12/19 00:17:37;;;;;;;32.15;20.35;;;;;;;-14.81;75.01;98767.41;5110011;28;20074;-72
2022/12/19 00:20:06;;;;;;;25.17;16.88;;;;;;;-3.70;76.11;100686.16;5109964;28;20044;-72
2022/12/19 00:22:35;;;;;;;25.98;18.05;;;;;;;-3.03;75.89;100912.47;5114819;28;20036;-73
2022/12/19 00:25:01;;;;;;;28.95;18.88;;;;;;;-2.40;75.69;100886.22;5114208;28;20040;-72
2022/12/19 00:27:28;;;;;;;26.70;18.67;;;;;;;-5.50;75.42;100566.75;5112582;28;20052;-72
2022/12/19 00:29:55;;;;;;;29.45;18.98;;;;;;;-2.45;76.01;100874.88;5114436;28;20055;-72
2022/12/19 00:32:22;;;;;;;28.45;18.38;;;;;;;-2.46;76.13;100884.38;5114840;28;20044;-72
2022/12/19 00:34:49;;;;;;;26.63;18.48;;;;;;;-2.48;76.04;100873.09;5114448;28;20040;-72
2022/12/19 00:37:20;;;;;;;26.67;17.63;;;;;;;-6.26;75.62;100278.94;5114733;28;20101;-72
2022/12/19 00:39:48;;;;;;;26.55;17.27;;;;;;;-5.04;75.76;100478.44;5098116;28;20044;-72
2022/12/19 00:42:17;;;;;;;26.58;17.30;;;;;;;-2.47;76.04;100881.75;5097726;28;20040;-72
2022/12/19 00:44:43;;;;;;;30.30;19.50;;;;;;;-8.22;75.38;99893.19;5114197;28;20138;-71
2022/12/19 00:47:11;;;;;;;28.90;18.35;;;;;;;-8.57;75.13;99824.47;5115463;28;20047;-72
2022/12/19 00:49:40;;;;;;;26.38;18.92;;;;;;;-2.42;75.66;100882.72;5115105;28;20040;-72
2022/12/19 00:52:06;;;;;;;26.55;17.90;;;;;;;-3.81;75.42;100868.09;5115308;28;20090;-71
2022/12/19 00:54:35;;;;;;;26.77;18.42;;;;;;;-2.44;75.82;100879.22;5115024;28;20050;-71
2022/12/19 00:57:01;;;;;;;31.40;18.98;;;;;;;-2.44;75.57;100885.28;5113127;28;20292;-72
2022/12/19 00:59:28;;;;;;;29.42;19.33;;;;;;;-10.02;74.79;99583.19;5113261;28;20040;-73
2022/12/19 01:01:55;;;;;;;26.40;17.10;;;;;;;-9.81;74.70;99619.75;5112706;28;20231;-71
2022/12/19 01:04:21;;;;;;;29.10;18.75;;;;;;;-2.42;75.14;100881.00;5112387;28;20042;-71
2022/12/19 01:06:48;;;;;;;23.65;16.67;;;;;;;-2.43;75.39;100881.84;5111713;28;20036;-71
2022/12/19 01:09:15;;;;;;;27.42;18.25;;;;;;;-6.03;74.86;100650.38;5094555;28;20040;-71
2022/12/19 01:14:28;;;;;;;25.45;17.13;;;;;;;-13.41;74.39;99081.31;5096811;28;20066;-71
2022/12/19 01:16:55;;;;;;;25.52;16.55;;;;;;;-2.41;75.12;100842.94;5111140;28;20036;-71
2022/12/19 01:19:22;;;;;;;27.65;15.95;;;;;;;-2.39;75.14;100841.25;5110956;28;20044;-71
2022/12/19 01:21:48;;;;;;;25.20;16.40;;;;;;;-11.81;74.07;99221.03;5111834;28;20044;-71
2022/12/19 01:24:16;;;;;;;26.92;16.20;;;;;;;-3.11;74.77;101012.53;5112404;28;20112;-72
2022/12/19 01:26:44;;;;;;;27.25;18.50;;;;;;;-10.36;74.16;99448.94;5112167;28;20032;-71
2022/12/19 01:29:11;;;;;;;25.58;16.15;;;;;;;-13.65;73.79;98921.59;5113177;28;20060;-72
2022/12/19 01:31:38;;;;;;;25.02;16.67;;;;;;;-6.92;74.31;100044.28;5094374;28;20036;-72
2022/12/19 01:34:06;;;;;;;26.77;15.65;;;;;;;-2.38;74.78;101206.53;5111516;28;20235;-72
2022/12/19 01:36:34;;;;;;;26.60;17.42;;;;;;;-2.46;74.83;100811.69;5112360;28;20047;-71
2022/12/19 01:39:01;;;;;;;21.85;15.65;;;;;;;-2.39;74.73;100821.34;5111932;28;20044;-72
2022/12/19 01:41:28;;;;;;;23.17;16.38;;;;;;;-8.51;74.24;99897.50;5078044;28;20040;-72
2022/12/19 01:43:59;;;;;;;25.58;16.10;;;;;;;-3.52;74.58;100610.56;5110914;28;20040;-72
2022/12/19 01:46:31;;;;;;;23.98;15.32;;;;;;;-2.45;74.68;100799.56;5111283;28;20065;-71
2022/12/19 01:49:00;;;;;;;24.10;16.98;;;;;;;-2.63;74.46;100753.34;5112443;28;20062;-71
2022/12/19 01:51:37;;;;;;;23.73;15.90;;;;;;;-7.93;73.80;99857.09;5112103;28;20036;-71
2022/12/19 01:54:07;;;;;;;22.67;16.17;;;;;;;-6.20;73.85;100120.88;5111401;28;20040;-72
2022/12/19 01:56:39;;;;;;;23.35;15.57;;;;;;;-2.36;74.38;100795.44;5076611;28;20207;-72
2022/12/19 01:59:14;;;;;;;22.70;15.23;;;;;;;-2.35;74.12;100789.41;5111463;28;20099;-72
2022/12/19 02:01:42;;;;;;;23.90;16.17;;;;;;;-6.01;73.96;100200.47;5112427;28;20104;-72
2022/12/19 02:04:10;;;;;;;27.13;16.90;;;;;;;-2.33;74.06;100797.22;5110740;28;20111;-72
2022/12/19 02:06:39;;;;;;;25.63;16.63;;;;;;;-3.90;74.11;100516.47;5112084;28;20044;-72
2022/12/19 02:09:06;;;;;;;22.92;15.05;;;;;;;-2.32;73.91;100778.19;5110160;28;20044;-72
2022/12/19 02:11:33;;;;;;;26.77;18.00;;;;;;;-2.33;74.30;100768.66;5109944;28;20322;-71
2022/12/19 02:14:00;;;;;;;25.70;16.13;;;;;;;-2.34;74.16;100777.28;5094944;28;20036;-72
2022/12/19 02:16:40;;;;;;;26.13;17.17;;;;;;;-2.32;74.05;100778.19;5093955;28;20089;-71
2022/12/19 02:19:41;;;;;;;26.20;16.25;;;;;;;-2.34;74.41;100796.34;5110010;28;20052;-71
2022/12/19 02:22:16;;;;;;;24.17;15.35;;;;;;;-2.35;74.30;100773.81;5109670;28;20040;-71
2022/12/19 02:25:26;;;;;;;22.63;15.05;;;;;;;-2.33;74.17;100776.44;5110466;28;20047;-71
2022/12/19 02:28:21;;;;;;;23.20;16.00;;;;;;;-2.42;74.41;100761.56;5091730;28;20044;-72
2022/12/19 02:31:08;;;;;;;30.17;19.85;;;;;;;-3.41;75.31;100585.75;5106869;28;20113;-71
2022/12/19 02:33:42;;;;;;;24.80;15.18;;;;;;;-2.27;74.38;100775.69;5110746;28;20035;-70
2022/12/19 02:36:16;;;;;;;24.75;16.15;;;;;;;-2.91;74.19;100693.97;5110360;28;20330;-71
2022/12/19 02:38:51;;;;;;;25.83;16.35;;;;;;;-2.35;74.27;100810.19;5109566;28;20065;-72
2022/12/19 02:41:26;;;;;;;23.95;16.00;;;;;;;-2.37;74.25;100754.75;5109585;28;20073;-72
2022/12/19 02:43:54;;;;;;;;;;;;;;;-2.40;74.35;100757.28;5110222;28;20055;-72
2022/12/19 02:46:26;;;;;;;25.63;16.88;;;;;;;-2.89;74.34;100679.28;5109727;28;19920;-71
2022/12/19 02:48:54;;;;;;;23.88;16.05;;;;;;;-2.36;74.06;100751.28;5110116;28;20188;-72
2022/12/19 02:51:21;;;;;;;24.23;15.88;;;;;;;-7.57;73.54;99882.94;5111516;28;20054;-72
2022/12/19 02:53:49;;;;;;;23.17;15.40;;;;;;;-3.74;73.77;100517.66;5112019;28;20048;-73
2022/12/19 02:56:35;;;;;;;25.20;17.15;;;;;;;-2.35;74.04;100754.78;5097202;28;20036;-73
2022/12/19 02:59:14;;;;;;;21.52;15.10;;;;;;;-2.36;74.07;100745.22;5095573;28;20048;-72
2022/12/19 03:01:49;;;;;;;22.27;15.38;;;;;;;-2.34;74.07;100748.72;5111354;28;20036;-72
2022/12/19 03:04:29;;;;;;;24.75;15.38;;;;;;;-6.59;73.62;100229.88;5112109;28;20059;-71
2022/12/19 03:07:03;;;;;;;25.38;15.45;;;;;;;-2.36;73.95;100781.59;5111287;28;20303;-72
2022/12/19 03:09:38;;;;;;;24.60;15.25;;;;;;;-2.34;73.98;100740.94;5111602;28;20080;-72
2022/12/19 03:12:09;;;;;;;26.63;15.10;;;;;;;-2.32;73.92;100757.44;5110475;28;20040;-71
2022/12/19 03:14:37;;;;;;;24.90;17.95;;;;;;;-5.73;73.37;100412.88;5095222;28;20073;-72
2022/12/19 03:17:08;;;;;;;26.27;16.95;;;;;;;-2.96;73.71;100647.16;5111754;28;20035;-72
2022/12/19 03:19:38;;;;;;;23.48;16.35;;;;;;;-3.54;73.64;100528.47;5111682;28;20054;-71
2022/12/19 03:22:06;;;;;;;26.35;16.05;;;;;;;-2.32;73.79;100758.31;5111457;28;20123;-72
2022/12/19 03:24:33;;;;;;;23.33;16.27;;;;;;;-2.31;73.78;100769.56;5110812;28;20316;-71
2022/12/19 03:27:04;;;;;;;23.77;14.80;;;;;;;-4.83;73.52;100341.03;5093079;28;20118;-71
2022/12/19 03:29:34;;;;;;;22.42;15.48;;;;;;;-2.28;73.68;100747.97;5092331;28;20112;-71
2022/12/19 03:32:05;;;;;;;25.80;15.77;;;;;;;-4.08;73.48;100439.25;5108888;28;20059;-71
2022/12/19 03:34:40;;;;;;;25.48;17.02;;;;;;;-2.24;73.44;100755.84;5109794;28;20035;-72
2022/12/19 03:37:14;;;;;;;21.75;15.98;;;;;;;-2.24;73.66;100763.63;5110390;28;20040;-72
2022/12/19 03:39:45;;;;;;;25.55;16.88;;;;;;;-2.22;73.50;100806.09;5094435;28;20066;-72
2022/12/19 03:45:02;;;;;;;27.52;18.73;;;;;;;-2.24;73.67;100857.13;5096385;28;20094;-72
2022/12/19 03:47:35;;;;;;;24.45;15.35;;;;;;;-2.24;73.39;100753.25;5110715;28;20031;-71
2022/12/19 03:50:04;;;;;;;24.88;16.33;;;;;;;-4.18;73.02;100475.28;5109705;28;20040;-71
2022/12/19 03:52:45;;;;;;;25.60;16.30;;;;;;;-4.20;73.35;100404.47;5109735;28;20047;-71
2022/12/19 03:55:17;;;;;;;26.25;16.58;;;;;;;-5.39;73.07;100237.22;5112743;28;20032;-71
2022/12/19 03:57:49;;;;;;;25.17;15.25;;;;;;;-2.21;73.38;100749.84;5112228;28;20189;-71
2022/12/19 04:00:19;;;;;;;26.40;16.85;;;;;;;-4.35;72.99;100374.84;5112982;28;20035;-71
2022/12/19 04:02:49;;;;;;;24.02;15.48;;;;;;;-4.17;73.12;100391.59;5112241;28;20044;-72
2022/12/19 04:05:20;;;;;;;23.27;15.65;;;;;;;-4.14;73.17;100396.81;5110963;28;20054;-71
2022/12/19 04:07:48;;;;;;;24.45;15.88;;;;;;;-3.21;73.20;100551.56;5113013;28;20105;-72
2022/12/19 04:10:18;;;;;;;25.30;17.27;;;;;;;-3.39;73.20;100526.16;5095320;28;20036;-72
2022/12/19 04:12:50;;;;;;;23.02;16.90;;;;;;;-2.82;73.09;100614.59;5112164;28;20036;-72
2022/12/19 04:15:18;;;;;;;24.15;16.33;;;;;;;-2.22;73.14;100831.19;5113767;28;20043;-73
2022/12/19 04:17:48;;;;;;;25.95;16.10;;;;;;;-2.22;73.13;100723.00;5113172;28;20334;-72
2022/12/19 04:20:18;;;;;;;27.15;17.17;;;;;;;-2.20;73.06;100720.41;5113289;28;20044;-71
2022/12/19 04:22:53;;;;;;;21.40;15.13;;;;;;;-9.82;72.39;99436.78;5113365;28;20223;-71
2022/12/19 04:25:24;;;;;;;25.58;17.45;;;;;;;-2.19;73.49;100758.53;5112238;28;20040;-69
2022/12/19 04:27:56;;;;;;;25.50;16.70;;;;;;;-2.82;73.67;101163.78;5112326;28;20120;-72
2022/12/19 04:30:23;;;;;;;25.70;15.55;;;;;;;-2.11;73.22;100730.97;5112282;28;20318;-72
2022/12/19 04:32:52;;;;;;;26.80;18.02;;;;;;;-2.12;73.35;100730.09;5112280;28;20119;-71
2022/12/19 04:35:20;;;;;;;27.70;19.58;;;;;;;-5.54;72.90;100147.34;5111992;28;20043;-71
2022/12/19 04:37:47;;;;;;;28.23;18.90;;;;;;;-4.90;73.13;100613.22;5094679;28;20063;-71
2022/12/19 04:40:15;;;;;;;26.70;17.50;;;;;;;-4.00;73.47;100455.81;5111963;28;20085;-71
2022/12/19 04:42:41;;;;;;;28.35;18.15;;;;;;;-2.21;73.60;100726.47;5112017;28;20280;-71
2022/12/19 04:45:09;;;;;;;30.45;18.88;;;;;;;-3.16;73.43;100555.13;5111469;28;20047;-71
2022/12/19 04:47:36;;;;;;;28.77;18.92;;;;;;;-9.21;73.28;99784.03;5094566;28;20044;-71
2022/12/19 04:50:04;;;;;;;30.20;19.40;;;;;;;-14.11;73.07;98841.06;5112471;28;20040;-71
2022/12/19 04:52:32;;;;;;;29.13;19.83;;;;;;;-2.37;74.21;100728.78;5112208;28;20105;-71
2022/12/19 04:55:00;;;;;;;29.95;18.02;;;;;;;-2.40;74.35;100718.34;5093691;28;20048;-71
2022/12/19 04:57:29;;;;;;;31.08;19.30;;;;;;;-2.40;74.33;100707.06;5109716;28;20040;-72
2022/12/19 04:59:56;;;;;;;28.70;18.92;;;;;;;-2.44;74.79;100713.94;5110296;28;20044;-71
2022/12/19 05:02:23;;;;;;;27.88;19.30;;;;;;;-2.48;74.77;100714.72;5110835;28;20303;-71
2022/12/19 05:04:50;;;;;;;27.02;17.85;;;;;;;-2.48;74.82;100706.94;5110219;28;20036;-70
2022/12/19 05:07:17;;;;;;;29.90;18.58;;;;;;;-2.48;75.03;100706.06;5109370;28;20036;-71
2022/12/19 05:09:45;;;;;;;28.83;18.63;;;;;;;-2.48;74.87;100703.47;5109760;28;20052;-71
2022/12/19 05:12:12;;;;;;;29.45;18.67;;;;;;;-2.52;75.16;100705.13;5109642;28;20036;-71
2022/12/19 05:14:39;;;;;;;29.33;20.40;;;;;;;-2.51;75.09;100756.19;5110376;28;20047;-71
2022/12/19 05:17:06;;;;;;;33.97;22.50;;;;;;;-2.53;75.32;100707.69;5109731;28;20109;-71
2022/12/19 05:19:33;;;;;;;31.45;20.88;;;;;;;-2.55;75.53;100706.78;5109213;28;20040;-71
2022/12/19 05:22:00;;;;;;;30.35;20.27;;;;;;;-2.57;75.38;100713.66;5109199;28;20036;-72
2022/12/19 05:24:26;;;;;;;29.58;20.70;;;;;;;-2.57;75.56;100721.44;5109020;28;20047;-70
2022/12/19 05:26:55;;;;;;;30.23;19.95;;;;;;;-2.59;75.54;100718.81;5109891;28;20292;-71
2022/12/19 05:29:22;;;;;;;29.27;20.23;;;;;;;-2.80;75.51;100695.06;5108913;28;20316;-71
2022/12/19 05:31:48;;;;;;;32.45;21.45;;;;;;;-2.61;75.77;100733.50;5108963;28;20073;-71
2022/12/19 05:34:15;;;;;;;33.20;21.63;;;;;;;-3.10;75.97;100649.50;5109487;28;20040;-71
2022/12/19 05:36:42;;;;;;;29.77;20.67;;;;;;;-2.67;75.95;100716.09;5108503;28;20035;-71
2022/12/19 05:39:08;;;;;;;33.10;22.05;;;;;;;-2.70;76.21;100709.94;5109691;28;20058;-71
2022/12/19 05:41:35;;;;;;;33.08;21.98;;;;;;;-2.70;76.23;100716.03;5109156;28;20052;-71
2022/12/19 05:44:04;;;;;;;31.85;20.55;;;;;;;-3.30;76.22;100627.47;5108318;28;20040;-71
2022/12/19 05:46:30;;;;;;;30.40;21.70;;;;;;;-2.71;76.30;100731.56;5109030;28;20051;-71
2022/12/19 05:48:58;;;;;;;31.63;21.65;;;;;;;-2.76;76.50;100725.41;5110352;28;20215;-71
2022/12/19 05:51:25;;;;;;;32.35;21.13;;;;;;;-2.76;76.51;100733.19;5091748;28;20059;-71
2022/12/19 05:53:52;;;;;;;34.35;22.05;;;;;;;-2.79;76.54;100728.81;5108633;28;20044;-71
2022/12/19 05:56:21;;;;;;;32.53;21.58;;;;;;;-2.80;76.20;100731.38;5108386;28;20085;-71
2022/12/19 05:58:49;;;;;;;30.55;19.85;;;;;;;-2.86;76.92;100729.53;5108483;28;20059;-71
2022/12/19 06:01:20;;;;;;;32.78;21.70;;;;;;;-2.86;76.77;100742.50;5108193;28;20051;-71
2022/12/19 06:03:47;;;;;;;33.95;22.08;;;;;;;-2.86;77.16;100736.44;5108963;28;20039;-71
2022/12/19 06:06:17;;;;;;;34.33;22.30;;;;;;;-2.88;77.02;100749.38;5108835;28;20145;-71
2022/12/19 06:08:44;;;;;;;35.47;21.65;;;;;;;-2.92;76.92;100731.13;5108183;28;20097;-71
2022/12/19 06:11:13;;;;;;;31.15;20.05;;;;;;;-3.11;76.99;100724.66;5109242;28;20065;-71
2022/12/19 06:13:40;;;;;;;32.78;20.08;;;;;;;-2.95;77.02;100748.38;5108931;28;20204;-71
2022/12/19 06:16:10;;;;;;;29.45;19.52;;;;;;;-2.92;76.96;100750.16;5110090;28;20052;-70
2022/12/19 06:18:39;;;;;;;33.88;21.45;;;;;;;-2.96;77.30;100743.16;5108808;28;20317;-71
2022/12/19 06:21:07;;;;;;;34.10;22.50;;;;;;;-2.98;77.49;100771.66;5108929;28;20229;-71
2022/12/19 06:23:36;;;;;;;37.17;21.67;;;;;;;-2.97;77.20;100755.25;5109789;28;20052;-71
2022/12/19 06:26:05;;;;;;;37.75;21.75;;;;;;;-2.99;77.53;100743.97;5110022;28;20047;-72
2022/12/19 06:28:33;;;;;;;31.40;20.05;;;;;;;-3.57;77.37;100643.28;5110035;28;20045;-71
2022/12/19 06:31:02;;;;;;;34.33;21.85;;;;;;;-3.44;77.61;100670.34;5109117;28;20068;-71
2022/12/19 06:33:31;;;;;;;33.85;21.58;;;;;;;-3.42;77.59;100674.72;5109925;28;20051;-71
2022/12/19 06:36:00;;;;;;;36.97;21.60;;;;;;;-3.02;77.87;100753.41;5109223;28;20292;-70
2022/12/19 06:38:28;;;;;;;32.50;20.77;;;;;;;-3.08;77.97;100750.66;5109639;28;20074;-71
2022/12/19 06:43:40;;;;;;;35.10;21.38;;;;;;;-3.30;78.02;100715.59;5109115;28;20044;-71
2022/12/19 06:46:07;;;;;;;36.38;21.40;;;;;;;-3.08;78.00;100738.56;5109554;28;20043;-71
2022/12/19 06:48:34;;;;;;;36.00;20.80;;;;;;;-3.66;77.81;100641.34;5108198;28;20050;-71
2022/12/19 06:51:03;;;;;;;35.47;19.90;;;;;;;-3.04;77.92;100750.75;5109560;28;20169;-71
2022/12/19 06:53:30;;;;;;;36.03;23.42;;;;;;;-3.07;77.82;100757.59;5109976;28;20307;-71
2022/12/19 06:55:59;;;;;;;35.20;22.60;;;;;;;-3.36;78.01;100710.28;5109546;28;20036;-71
2022/12/19 06:58:26;;;;;;;35.75;22.38;;;;;;;-3.09;78.28;100769.66;5109505;28;20304;-71
2022/12/19 07:00:53;;;;;;;36.97;22.75;;;;;;;-3.36;78.14;100728.44;5108328;28;20061;-71
2022/12/19 07:03:24;;;;;;;36.10;19.95;;;;;;;-3.11;78.41;100785.19;5108755;28;20200;-71
2022/12/19 07:05:50;;;;;;;41.40;21.60;;;;;;;-3.10;78.19;100773.97;5108071;28;20043;-71
2022/12/19 07:08:19;;;;;;;36.60;21.85;;;;;;;-3.15;78.53;100780.78;5107885;28;20299;-71
2022/12/19 07:10:46;;;;;;;35.33;21.40;;;;;;;-3.22;78.50;100772.81;5091103;28;20040;-71
2022/12/19 07:13:14;;;;;;;34.15;19.63;;;;;;;-3.22;78.87;100783.19;5108248;28;20040;-71
2022/12/19 07:15:41;;;;;;;32.67;20.00;;;;;;;-3.29;78.48;100775.28;5108497;28;20115;-71
2022/12/19 07:18:10;;;;;;;32.28;19.40;;;;;;;-3.27;78.88;100785.69;5109463;28;20044;-70
2022/12/19 07:20:41;;;;;;;30.67;18.70;;;;;;;-4.12;78.53;100641.97;5108711;28;20040;-71
2022/12/19 07:23:10;;;;;;;31.85;19.67;;;;;;;-3.27;78.72;100802.13;5109384;28;20084;-71
2022/12/19 07:25:39;;;;;;;30.52;19.67;;;;;;;-3.27;79.14;100809.88;5109392;28;20044;-71
2022/12/19 07:28:08;;;;;;;37.28;19.45;;;;;;;-3.29;79.14;100796.00;5109180;28;20067;-71
2022/12/19 07:30:35;;;;;;;30.45;18.30;;;;;;;-3.27;78.97;100809.00;5108026;28;20048;-71
2022/12/19 07:33:02;;;;;;;32.22;18.38;;;;;;;-3.39;79.19;100775.03;5092200;28;20109;-71
2022/12/19 07:35:29;;;;;;;31.50;18.88;;;;;;;-3.25;79.30;100794.38;5108865;28;20048;-70
2022/12/19 07:38:01;;;;;;;27.90;17.95;;;;;;;-6.53;79.18;100570.47;5109457;28;20046;-71
2022/12/19 07:40:28;;;;;;;32.78;18.60;;;;;;;-4.95;78.77;100543.28;5109067;28;20216;-71
2022/12/19 07:42:59;;;;;;;30.50;18.02;;;;;;;-3.22;79.16;100810.00;5108856;28;20078;-71
2022/12/19 07:45:25;;;;;;;35.28;19.88;;;;;;;-3.20;79.40;100802.25;5109595;28;20059;-70
2022/12/19 07:47:52;;;;;;;34.50;17.77;;;;;;;-6.85;79.05;100174.16;5109755;28;20048;-71
2022/12/19 07:50:19;;;;;;;33.25;18.02;;;;;;;-4.71;79.36;100555.09;5109468;28;20036;-71
2022/12/19 07:52:46;;;;;;;32.35;20.30;;;;;;;-3.22;79.53;100799.63;5108910;28;20036;-71
2022/12/19 07:55:12;;;;;;;31.45;18.83;;;;;;;-3.20;79.78;100810.03;5108949;28;20058;-71
2022/12/19 07:57:39;;;;;;;31.52;17.88;;;;;;;-3.20;79.80;100816.09;5108483;28;20161;-71
2022/12/19 08:00:09;;;;;;;31.23;19.20;;;;;;;-3.23;79.96;100820.34;5108893;28;20043;-71
2022/12/19 08:02:36;;;;;;;31.48;18.58;;;;;;;-5.07;79.84;100511.94;5108888;28;20048;-72
2022/12/19 08:05:04;;;;;;;30.52;17.55;;;;;;;-3.22;80.08;100830.75;5108090;28;20036;-71
2022/12/19 08:07:31;;;;;;;33.58;19.63;;;;;;;-3.98;79.92;100697.56;5090821;28;20071;-71
2022/12/19 08:09:59;;;;;;;31.35;17.40;;;;;;;-3.16;79.95;100838.66;5107245;28;20316;-71
2022/12/19 08:12:26;;;;;;;31.98;19.42;;;;;;;-3.82;80.02;100754.94;5106996;28;20209;-71
2022/12/19 08:14:53;;;;;;;32.83;19.90;;;;;;;-3.17;80.01;100828.25;5106821;28;20036;-71
2022/12/19 08:17:22;;;;;;;33.78;18.67;;;;;;;-3.45;80.03;100782.66;5107709;28;20040;-71
2022/12/19 08:19:49;;;;;;;34.47;18.70;;;;;;;-3.17;80.31;100828.25;5106683;28;20040;-71
2022/12/19 08:22:15;;;;;;;36.85;19.35;;;;;;;-3.11;80.15;100828.41;5106651;28;20047;-71
2022/12/19 08:24:42;;;;;;;35.00;20.15;;;;;;;-3.81;79.99;100697.09;5107186;28;20063;-71
2022/12/19 08:27:09;;;;;;;33.00;18.67;;;;;;;-3.07;79.79;100815.53;5107006;28;20036;-70
2022/12/19 08:29:35;;;;;;;33.05;19.70;;;;;;;-3.12;80.46;100835.31;5107023;28;20189;-71
2022/12/19 08:32:02;;;;;;;32.70;18.77;;;;;;;-3.57;80.38;100753.84;5108353;28;20056;-71
2022/12/19 08:34:31;;;;;;;32.67;18.65;;;;;;;-3.07;80.34;100843.19;5108771;28;20032;-71
2022/12/19 08:36:58;;;;;;;32.83;18.42;;;;;;;-3.07;80.50;100841.47;5108761;28;20067;-71
2022/12/19 08:39:25;;;;;;;40.13;21.00;;;;;;;-3.75;80.43;100840.63;5107722;28;20048;-71
2022/12/19 08:41:52;;;;;;;34.17;18.27;;;;;;;-3.01;80.41;100848.53;5110246;28;20048;-70
2022/12/19 08:44:19;;;;;;;29.83;17.05;;;;;;;-6.74;79.89;100236.31;5111877;28;20055;-71
2022/12/19 08:46:45;;;;;;;33.45;18.10;;;;;;;-4.44;80.37;100614.44;5111739;28;20039;-72
2022/12/19 08:49:12;;;;;;;36.80;20.02;;;;;;;-5.15;80.03;100489.31;5112292;28;20050;-71
2022/12/19 08:51:41;;;;;;;30.85;18.83;;;;;;;-3.77;80.49;100758.50;5111780;28;20048;-71
2022/12/19 08:54:08;;;;;;;32.50;20.63;;;;;;;-3.00;80.58;100861.53;5112163;28;20044;-70
2022/12/19 08:56:35;;;;;;;35.63;21.02;;;;;;;-7.87;80.04;100284.41;5112003;28;20056;-71
2022/12/19 08:59:02;;;;;;;29.73;18.67;;;;;;;-6.57;79.84;100392.38;5112161;28;20046;-71
2022/12/19 09:01:28;;;;;;;31.60;18.40;;;;;;;-4.08;80.01;100651.56;5094764;28;20044;-71
2022/12/19 09:03:58;;;;;;;30.00;18.88;;;;;;;-2.92;79.87;100851.34;5110875;28;20036;-71
2022/12/19 09:06:27;;;;;;;33.88;17.85;;;;;;;-6.98;79.82;100146.34;5111093;28;20044;-71
2022/12/19 09:08:55;;;;;;;31.05;17.60;;;;;;;-2.92;79.94;100860.84;5110834;28;20044;-71
2022/12/19 09:11:22;;;;;;;28.13;15.85;;;;;;;-2.88;80.09;100867.84;5111242;28;20035;-71
2022/12/19 09:13:49;;;;;;;31.85;20.38;;;;;;;-6.05;79.61;100548.78;5109910;28;20284;-71
2022/12/19 09:16:17;;;;;;;30.98;18.02;;;;;;;-4.12;79.58;100631.63;5110175;28;20081;-71
2022/12/19 09:18:45;;;;;;;29.33;18.15;;;;;;;-5.76;79.71;100362.03;5110107;28;20044;-72
2022/12/19 09:21:12;;;;;;;29.77;16.90;;;;;;;-3.64;79.79;100730.34;5109194;28;20231;-71
2022/12/19 09:23:40;;;;;;;31.55;17.52;;;;;;;-9.24;78.97;99801.91;5109525;28;20117;-71
2022/12/19 09:26:10;;;;;;;27.50;16.95;;;;;;;-2.81;79.38;100864.56;5108838;28;20051;-71
2022/12/19 09:28:39;;;;;;;29.38;18.05;;;;;;;-2.79;79.77;100875.84;5091954;28;20331;-71
2022/12/19 09:31:08;;;;;;;31.27;17.25;;;;;;;-2.79;79.48;100873.25;5109253;28;20060;-71
2022/12/19 09:33:37;;;;;;;33.53;19.02;;;;;;;-8.18;78.91;100069.03;5108705;28;20050;-71
2022/12/19 09:36:05;;;;;;;32.95;18.92;;;;;;;-6.88;79.40;100166.34;5108617;28;20051;-71
2022/12/19 09:38:33;;;;;;;28.70;18.35;;;;;;;-2.76;79.59;100871.59;5109511;28;20066;-71
2022/12/19 09:41:30;;;;;;;30.85;19.27;;;;;;;-10.54;79.16;99522.66;5108814;28;20040;-71
2022/12/19 09:44:05;;;;;;;31.05;17.48;;;;;;;-2.78;79.71;100864.63;5109015;28;20211;-71
2022/12/19 09:46:41;;;;;;;36.40;19.50;;;;;;;-4.62;79.95;100550.16;5109793;28;20288;-71
2022/12/19 09:49:14;;;;;;;32.58;17.90;;;;;;;-2.79;79.84;100863.75;5109902;28;20048;-72
2022/12/19 09:51:47;;;;;;;31.65;20.52;;;;;;;-3.78;79.62;100686.81;5109136;28;20058;-71
2022/12/19 09:54:19;;;;;;;33.28;19.88;;;;;;;-2.75;80.01;100891.50;5109093;28;20040;-71
2022/12/19 09:56:49;;;;;;;36.10;20.13;;;;;;;-2.73;79.49;100857.81;5108421;28;20036;-71
2022/12/19 09:59:25;;;;;;;32.90;19.08;;;;;;;-2.73;79.86;100858.69;5108439;28;20120;-70
2022/12/19 10:01:59;;;;;;;34.42;20.40;;;;;;;-2.73;79.85;100857.81;5109302;28;20050;-71
2022/12/19 10:04:30;;;;;;;34.75;19.35;;;;;;;-2.73;79.44;100850.91;5091344;28;20118;-71
2022/12/19 10:06:57;;;;;;;31.58;19.33;;;;;;;-12.00;78.28;99297.91;5109121;28;20040;-71
2022/12/19 10:09:32;;;;;;;34.33;19.55;;;;;;;-11.97;78.56;99280.13;5108478;28;20040;-71
2022/12/19 10:12:21;;;;;;;35.85;20.15;;;;;;;-6.06;79.30;100294.09;5092331;28;20039;-71
2022/12/19 10:14:58;;;;;;;31.88;20.15;;;;;;;-12.91;78.33;99110.25;5109714;28;20047;-71
2022/12/19 10:17:34;;;;;;;31.60;17.95;;;;;;;-2.57;79.36;100937.78;5109305;28;20048;-71
2022/12/19 10:20:25;;;;;;;37.80;20.83;;;;;;;-2.54;79.13;100891.13;5109178;28;20040;-72
2022/12/19 10:23:08;;;;;;;33.00;19.80;;;;;;;-2.57;79.22;100883.25;5107988;28;20044;-71
2022/12/19 10:25:51;;;;;;;34.33;18.23;;;;;;;-2.55;79.20;100902.34;5108244;28;20088;-71
2022/12/19 10:28:35;;;;;;;35.70;19.83;;;;;;;-2.53;79.35;100887.69;5109035;28;20039;-71
2022/12/19 10:31:11;;;;;;;33.70;19.20;;;;;;;-2.55;79.37;100868.59;5090953;28;20048;-71
2022/12/19 10:33:46;;;;;;;38.13;20.88;;;;;;;-3.17;79.41;100771.22;5108553;28;20059;-71
2022/12/19 10:36:14;;;;;;;32.28;20.50;;;;;;;-5.14;78.97;100437.66;5108441;28;20040;-71
2022/12/19 10:38:51;;;;;;;34.42;18.88;;;;;;;-4.27;79.13;100606.25;5107407;28;20153;-71
2022/12/19 10:41:21;;;;;;;32.60;20.13;;;;;;;-2.50;79.05;100854.00;5108182;28;20098;-72
2022/12/19 10:44:01;;;;;;;38.63;20.95;;;;;;;-2.48;79.36;100860.09;5107101;28;20047;-72
2022/12/19 10:46:39;;;;;;;33.53;20.25;;;;;;;-6.04;79.01;100238.22;5107936;28;20047;-71
2022/12/19 10:49:15;;;;;;;38.63;21.33;;;;;;;-2.46;79.06;100842.84;5107572;28;20101;-71
2022/12/19 10:51:52;;;;;;;27.60;17.20;;;;;;;-2.55;78.90;100821.88;5107727;28;20047;-71
2022/12/19 10:54:20;;;;;;;32.92;19.10;;;;;;;-3.20;78.61;100706.31;5108942;28;20051;-71
2022/12/19 10:56:47;;;;;;;33.42;18.23;;;;;;;-2.36;78.93;100836.13;5108672;28;20277;-71
2022/12/19 10:59:18;;;;;;;35.13;20.65;;;;;;;-2.64;78.77;100785.34;5108036;28;20078;-70
2022/12/19 11:01:46;;;;;;;40.90;20.83;;;;;;;-2.37;79.00;100843.03;5108824;28;20052;-71
2022/12/19 11:04:29;;;;;;;35.17;19.85;;;;;;;-2.54;79.24;100822.75;5106926;28;20048;-71
2022/12/19 11:07:18;;;;;;;32.67;18.73;;;;;;;-2.36;79.37;100843.91;5107892;28;20047;-71
2022/12/19 11:09:46;;;;;;;32.33;19.10;;;;;;;-3.01;79.31;100748.25;5108256;28;20066;-71
2022/12/19 11:12:15;;;;;;;31.67;19.40;;;;;;;-2.37;79.07;100832.63;5108412;28;20047;-71
2022/12/19 11:14:51;;;;;;;37.30;19.75;;;;;;;-3.88;78.81;100557.94;5108963;28;20051;-71
2022/12/19 11:17:26;;;;;;;34.55;20.92;;;;;;;-2.32;79.09;100818.03;5108016;28;20167;-71
2022/12/19 11:19:53;;;;;;;;;;;;;;;-2.32;79.40;100823.22;5108715;28;20036;-71
2022/12/19 11:22:24;;;;;;;39.88;19.17;;;;;;;-2.33;78.97;100824.06;5091014;28;19916;-71
2022/12/19 11:24:53;;;;;;;35.85;20.55;;;;;;;-2.35;78.89;100807.59;5108398;28;20170;-71
2022/12/19 11:27:36;;;;;;;36.53;19.88;;;;;;;-3.49;79.18;100609.78;5107697;28;20287;-71
2022/12/19 11:30:20;;;;;;;35.70;20.48;;;;;;;-2.30;79.08;100792.09;5107864;28;20063;-72